Time;durP1;ratioP1;P1;durP2;ratioP2;P2;SDS_P1;SDS_P2;PMS_P1;PMS_P2;Temp;Humidity;BMP_temperature;BMP_pressure;BME280_temperature;BME280_humidity;BME280_pressure;Samples;Min_cycle;Max_cycle;Signal;HPM_P1;HPM_P2
2023/06/02 00:01:09;;;;;;;;;;;13.90;99.90;;;;;;7374495;19;109247;-92
2023/06/02 00:03:37;;;;;;;;;;;13.90;99.90;;;;;;7372223;19;109126;-91
2023/06/02 00:06:05;;;;;;;;;;;14.00;99.90;;;;;;7369341;19;109167;-93
2023/06/02 00:08:33;;;;;;;;;;;13.90;99.90;;;;;;7354201;19;110342;-92
2023/06/02 00:11:00;;;;;;;;;;;14.00;99.90;;;;;;7372896;19;110219;-91
2023/06/02 00:13:27;;;;;;;;;;;13.90;99.90;;;;;;7372112;19;110356;-91
2023/06/02 00:15:54;;;;;;;;;;;13.90;99.90;;;;;;7373234;19;109996;-91
2023/06/02 00:18:25;;;;;;;;;;;13.90;99.90;;;;;;7352992;19;109312;-89
2023/06/02 00:20:52;;;;;;;;;;;13.80;99.90;;;;;;7345203;19;111202;-91
2023/06/02 00:23:21;;;;;;;;;;;13.70;99.90;;;;;;7347612;19;109608;-91
2023/06/02 00:28:34;;;;;;;;;;;13.70;99.90;;;;;;7325609;19;110775;-69
2023/06/02 00:31:01;;;;;;;;;;;13.70;99.90;;;;;;7330332;19;110535;-69
2023/06/02 00:33:29;;;;;;;;;;;13.70;99.90;;;;;;7332277;19;110006;-69
2023/06/02 00:35:56;;;;;;;;;;;13.70;99.90;;;;;;7330897;19;111488;-69
2023/06/02 00:38:23;;;;;;;;;;;13.70;99.90;;;;;;7339276;19;111981;-69
2023/06/02 00:40:51;;;;;;;;;;;13.70;99.90;;;;;;7330564;19;110358;-69
2023/06/02 00:43:18;;;;;;;;;;;13.80;99.90;;;;;;7334082;19;113551;-69
2023/06/02 00:45:45;;;;;;;;;;;13.90;99.90;;;;;;7330619;19;109623;-69
2023/06/02 00:48:12;;;;;;;;;;;14.00;99.90;;;;;;7333076;19;110828;-69
2023/06/02 00:50:39;;;;;;;;;;;14.00;99.90;;;;;;7331493;19;110251;-69
2023/06/02 00:53:06;;;;;;;;;;;14.00;99.90;;;;;;7329138;19;110133;-69
2023/06/02 00:55:33;;;;;;;;;;;14.00;99.90;;;;;;7333244;19;111391;-69
2023/06/02 00:58:03;;;;;;;;;;;14.00;99.90;;;;;;7332079;19;109714;-69
2023/06/02 01:00:36;;;;;;;;;;;14.00;99.90;;;;;;7336313;19;111720;-69
2023/06/02 01:03:04;;;;;;;;;;;14.00;99.90;;;;;;7330026;19;110716;-69
2023/06/02 01:05:31;;;;;;;;;;;14.10;99.90;;;;;;7327652;19;110223;-69
2023/06/02 01:08:00;;;;;;;;;;;13.90;99.90;;;;;;7332140;19;110106;-69
2023/06/02 01:10:28;;;;;;;;;;;13.80;99.90;;;;;;7327860;19;111013;-70
2023/06/02 01:12:56;;;;;;;;;;;13.70;99.90;;;;;;7334030;19;110034;-69
2023/06/02 01:15:23;;;;;;;;;;;13.60;99.90;;;;;;7329473;19;111569;-68
2023/06/02 01:17:50;;;;;;;;;;;13.60;99.90;;;;;;7332770;19;110116;-69
2023/06/02 01:20:21;;;;;;;;;;;13.50;99.90;;;;;;7330161;19;111615;-69
2023/06/02 01:23:08;;;;;;;;;;;13.40;99.90;;;;;;7336939;19;110545;-69
2023/06/02 01:25:36;;;;;;;;;;;13.40;99.90;;;;;;7330894;19;111882;-68
2023/06/02 01:28:06;;;;;;;;;;;13.40;99.90;;;;;;7330377;19;111760;-69
2023/06/02 01:30:40;;;;;;;;;;;13.40;99.90;;;;;;7328280;19;111524;-71
2023/06/02 01:33:21;;;;;;;;;;;13.30;99.90;;;;;;7330139;19;111797;-69
2023/06/02 01:35:50;;;;;;;;;;;13.30;99.90;;;;;;7331304;19;111101;-68
2023/06/02 01:38:18;;;;;;;;;;;13.40;99.90;;;;;;7325701;19;111316;-69
2023/06/02 01:40:45;;;;;;;;;;;13.40;99.90;;;;;;7334636;19;109979;-69
2023/06/02 01:43:13;;;;;;;;;;;13.60;99.90;;;;;;7337807;19;110165;-68
2023/06/02 01:45:44;;;;;;;;;;;13.60;99.90;;;;;;7330952;19;110202;-69
2023/06/02 01:48:15;;;;;;;;;;;13.60;99.90;;;;;;7328242;19;130267;-69
2023/06/02 01:50:43;;;;;;;;;;;13.70;99.90;;;;;;7332290;19;111475;-68
2023/06/02 01:53:10;;;;;;;;;;;13.70;99.90;;;;;;7326155;19;110933;-69
2023/06/02 01:55:37;;;;;;;;;;;13.70;99.90;;;;;;7332240;19;110128;-69
2023/06/02 01:58:04;;;;;;;;;;;13.70;99.90;;;;;;7328978;19;111129;-69
2023/06/02 02:00:31;;;;;;;;;;;13.70;99.90;;;;;;7332756;19;110004;-69
2023/06/02 02:02:59;;;;;;;;;;;13.70;99.90;;;;;;7328645;19;111077;-68
2023/06/02 02:05:26;;;;;;;;;;;13.70;99.90;;;;;;7334750;19;109588;-69
2023/06/02 02:07:53;;;;;;;;;;;13.70;99.90;;;;;;7330526;19;114874;-69
2023/06/02 02:10:20;;;;;;;;;;;13.60;99.90;;;;;;7325701;19;110936;-68
2023/06/02 02:12:47;;;;;;;;;;;13.60;99.90;;;;;;7331182;19;112376;-68
2023/06/02 02:15:15;;;;;;;;;;;13.50;99.90;;;;;;7322278;19;111310;-69
2023/06/02 02:17:45;;;;;;;;;;;13.40;99.90;;;;;;7333067;19;109656;-68
2023/06/02 02:20:16;;;;;;;;;;;13.40;99.90;;;;;;7327940;19;110967;-69
2023/06/02 02:22:44;;;;;;;;;;;13.50;99.90;;;;;;7330824;19;110522;-69
2023/06/02 02:25:12;;;;;;;;;;;13.40;99.90;;;;;;7329161;19;111610;-68
2023/06/02 02:27:39;;;;;;;;;;;13.50;99.90;;;;;;7332071;19;112156;-68
2023/06/02 02:30:07;;;;;;;;;;;13.50;99.90;;;;;;7333194;19;109396;-69
2023/06/02 02:32:35;;;;;;;;;;;13.50;99.90;;;;;;7337915;19;110957;-69
2023/06/02 02:35:03;;;;;;;;;;;13.40;99.90;;;;;;7336395;19;111224;-69
2023/06/02 02:37:30;;;;;;;;;;;13.20;99.90;;;;;;7335232;19;110207;-69
2023/06/02 02:40:11;;;;;;;;;;;13.20;99.90;;;;;;7337959;19;109602;-69
2023/06/02 02:42:38;;;;;;;;;;;13.10;99.90;;;;;;7338255;19;110231;-68
2023/06/02 02:45:05;;;;;;;;;;;13.00;99.90;;;;;;7338735;19;109876;-69
2023/06/02 02:47:32;;;;;;;;;;;12.90;99.90;;;;;;7338284;19;109675;-69
2023/06/02 02:50:00;;;;;;;;;;;12.90;99.90;;;;;;7342306;19;110426;-69
2023/06/02 02:52:28;;;;;;;;;;;13.00;99.90;;;;;;7337786;19;111318;-69
2023/06/02 02:54:55;;;;;;;;;;;13.00;99.90;;;;;;7335484;19;111172;-69
2023/06/02 02:57:22;;;;;;;;;;;12.90;99.90;;;;;;7336148;19;110610;-70
2023/06/02 02:59:49;;;;;;;;;;;12.90;99.90;;;;;;7335896;19;110059;-70
2023/06/02 03:02:16;;;;;;;;;;;12.90;99.90;;;;;;7333382;19;110215;-70
2023/06/02 03:04:43;;;;;;;;;;;12.90;99.90;;;;;;7337534;19;111787;-70
2023/06/02 03:07:10;;;;;;;;;;;12.90;99.90;;;;;;7332140;19;109720;-70
2023/06/02 03:09:39;;;;;;;;;;;12.90;99.90;;;;;;7336371;19;110488;-70
2023/06/02 03:12:07;;;;;;;;;;;12.90;99.90;;;;;;7342731;19;111610;-70
2023/06/02 03:14:34;;;;;;;;;;;12.90;99.90;;;;;;7335830;19;110091;-70
2023/06/02 03:17:02;;;;;;;;;;;12.80;99.90;;;;;;7335094;19;110272;-70
2023/06/02 03:19:29;;;;;;;;;;;12.90;99.90;;;;;;7335422;19;110862;-70
2023/06/02 03:21:56;;;;;;;;;;;12.80;99.90;;;;;;7335564;19;111870;-69
2023/06/02 03:24:24;;;;;;;;;;;12.90;99.90;;;;;;7337425;19;112252;-70
2023/06/02 03:26:55;;;;;;;;;;;12.90;99.90;;;;;;7337336;19;110211;-70
2023/06/02 03:29:22;;;;;;;;;;;13.00;99.90;;;;;;7334438;19;110796;-70
2023/06/02 03:31:51;;;;;;;;;;;13.00;99.90;;;;;;7334691;19;110331;-70
2023/06/02 03:34:20;;;;;;;;;;;13.00;99.90;;;;;;7341166;19;110610;-70
2023/06/02 03:36:51;;;;;;;;;;;13.00;99.90;;;;;;7334836;19;109872;-70
2023/06/02 03:39:27;;;;;;;;;;;12.90;99.90;;;;;;7333846;19;110453;-70
2023/06/02 03:41:54;;;;;;;;;;;13.00;99.90;;;;;;7331976;19;110732;-71
2023/06/02 03:44:21;;;;;;;;;;;13.00;99.90;;;;;;7334506;19;109779;-71
2023/06/02 03:46:48;;;;;;;;;;;13.00;99.90;;;;;;7335275;19;110547;-71
2023/06/02 03:49:16;;;;;;;;;;;13.00;99.90;;;;;;7334497;19;111109;-71
2023/06/02 03:51:43;;;;;;;;;;;13.00;99.90;;;;;;7333871;19;112184;-71
2023/06/02 03:54:10;;;;;;;;;;;13.00;99.90;;;;;;7337694;19;110426;-72
2023/06/02 03:56:37;;;;;;;;;;;12.90;99.90;;;;;;7334675;19;111105;-71
2023/06/02 03:59:04;;;;;;;;;;;13.00;99.90;;;;;;7334833;19;111476;-70
2023/06/02 04:01:32;;;;;;;;;;;13.00;99.90;;;;;;7337233;19;110770;-70
2023/06/02 04:04:00;;;;;;;;;;;12.90;99.90;;;;;;7336333;19;110397;-71
2023/06/02 04:06:28;;;;;;;;;;;12.90;99.90;;;;;;7335235;19;109776;-70
2023/06/02 04:08:55;;;;;;;;;;;12.90;99.90;;;;;;7333505;19;111846;-71
2023/06/02 04:11:22;;;;;;;;;;;13.00;99.90;;;;;;7334063;19;110748;-70
2023/06/02 04:13:49;;;;;;;;;;;13.00;99.90;;;;;;7336541;19;111852;-70
2023/06/02 04:16:16;;;;;;;;;;;13.10;99.90;;;;;;7341348;19;111264;-70
2023/06/02 04:18:44;;;;;;;;;;;13.10;99.90;;;;;;7336000;19;109614;-70
2023/06/02 04:21:10;;;;;;;;;;;13.10;99.90;;;;;;7333898;19;111414;-71
2023/06/02 04:23:38;;;;;;;;;;;13.20;99.90;;;;;;7331837;19;110067;-70
2023/06/02 04:26:05;;;;;;;;;;;13.10;99.90;;;;;;7332942;19;109588;-71
2023/06/02 04:28:36;;;;;;;;;;;13.00;99.90;;;;;;7331804;19;110984;-71
2023/06/02 04:31:05;;;;;;;;;;;12.90;99.90;;;;;;7332840;19;110666;-71
2023/06/02 04:33:33;;;;;;;;;;;12.90;99.90;;;;;;7329833;19;110455;-78
2023/06/02 04:36:00;;;;;;;;;;;12.90;99.90;;;;;;7333345;19;110677;-76
2023/06/02 04:38:27;;;;;;;;;;;12.90;99.90;;;;;;7336421;19;110029;-74
2023/06/02 04:40:56;;;;;;;;;;;12.90;99.90;;;;;;7330626;19;110060;-76
2023/06/02 04:43:23;;;;;;;;;;;12.90;99.90;;;;;;7334868;19;110012;-70
2023/06/02 04:45:50;;;;;;;;;;;12.90;99.90;;;;;;7336005;19;109323;-71
2023/06/02 04:48:17;;;;;;;;;;;12.90;99.90;;;;;;7331723;19;111332;-71
2023/06/02 04:50:44;;;;;;;;;;;13.00;99.90;;;;;;7332120;19;110245;-71
2023/06/02 04:53:14;;;;;;;;;;;13.10;99.90;;;;;;7331901;19;109817;-70
2023/06/02 04:55:43;;;;;;;;;;;13.00;99.90;;;;;;7330266;19;112198;-72
2023/06/02 04:58:10;;;;;;;;;;;13.00;99.90;;;;;;7333253;19;109794;-70
2023/06/02 05:00:37;;;;;;;;;;;13.00;99.90;;;;;;7336830;19;109628;-70
2023/06/02 05:03:05;;;;;;;;;;;12.90;99.90;;;;;;7334441;19;109298;-70
2023/06/02 05:05:32;;;;;;;;;;;12.90;99.90;;;;;;7327116;19;110377;-71
2023/06/02 05:07:59;;;;;;;;;;;12.90;99.90;;;;;;7333535;19;110867;-70
2023/06/02 05:10:26;;;;;;;;;;;12.80;99.90;;;;;;7328525;19;109934;-70
2023/06/02 05:12:54;;;;;;;;;;;12.80;99.90;;;;;;7331055;19;110239;-71
2023/06/02 05:15:21;;;;;;;;;;;12.80;99.90;;;;;;7327987;19;110649;-70
2023/06/02 05:17:48;;;;;;;;;;;12.70;99.90;;;;;;7330126;19;110287;-70
2023/06/02 05:20:15;;;;;;;;;;;12.70;99.90;;;;;;7331820;19;111325;-70
2023/06/02 05:22:42;;;;;;;;;;;12.70;99.90;;;;;;7337017;19;110115;-70
2023/06/02 05:25:10;;;;;;;;;;;12.80;99.90;;;;;;7331193;19;109925;-70
2023/06/02 05:27:37;;;;;;;;;;;12.70;99.90;;;;;;7332105;19;113820;-70
2023/06/02 05:30:05;;;;;;;;;;;12.70;99.90;;;;;;7331472;19;111504;-70
2023/06/02 05:32:32;;;;;;;;;;;12.80;99.90;;;;;;7330808;19;109559;-72
2023/06/02 05:35:02;;;;;;;;;;;12.70;99.90;;;;;;7330242;19;110309;-71
2023/06/02 05:37:29;;;;;;;;;;;12.70;99.90;;;;;;7331552;19;109481;-70
2023/06/02 05:39:56;;;;;;;;;;;12.70;99.90;;;;;;7330581;19;109622;-72
2023/06/02 05:42:24;;;;;;;;;;;12.80;99.90;;;;;;7329080;19;114497;-75
2023/06/02 05:44:52;;;;;;;;;;;12.80;99.90;;;;;;7339086;19;110516;-73
2023/06/02 05:47:19;;;;;;;;;;;12.80;99.90;;;;;;7331419;19;109570;-75
2023/06/02 05:49:46;;;;;;;;;;;12.70;99.90;;;;;;7327945;19;109595;-72
2023/06/02 05:52:13;;;;;;;;;;;12.70;99.90;;;;;;7325464;19;111361;-72
2023/06/02 05:54:40;;;;;;;;;;;12.70;99.90;;;;;;7329695;19;111606;-71
2023/06/02 05:57:07;;;;;;;;;;;12.70;99.90;;;;;;7330389;19;111026;-72
2023/06/02 05:59:34;;;;;;;;;;;12.60;99.90;;;;;;7329758;19;110841;-73
2023/06/02 06:02:02;;;;;;;;;;;12.70;99.90;;;;;;7327969;19;110121;-71
2023/06/02 06:04:30;;;;;;;;;;;12.70;99.90;;;;;;7334046;19;109918;-70
2023/06/02 06:06:58;;;;;;;;;;;12.70;99.90;;;;;;7328576;19;111162;-70
2023/06/02 06:09:25;;;;;;;;;;;12.80;99.90;;;;;;7331304;19;109593;-70
2023/06/02 06:11:52;;;;;;;;;;;12.70;99.90;;;;;;7328411;19;110970;-70
2023/06/02 06:14:19;;;;;;;;;;;12.70;99.90;;;;;;7328931;19;111449;-70
2023/06/02 06:16:46;;;;;;;;;;;12.80;99.90;;;;;;7328234;19;110340;-70
2023/06/02 06:19:14;;;;;;;;;;;12.90;99.90;;;;;;7329241;19;109619;-71
2023/06/02 06:21:41;;;;;;;;;;;13.00;99.90;;;;;;7326759;19;110567;-70
2023/06/02 06:24:08;;;;;;;;;;;13.00;99.90;;;;;;7331664;19;115019;-69
2023/06/02 06:26:35;;;;;;;;;;;12.90;99.90;;;;;;7333952;19;111576;-70
2023/06/02 06:29:03;;;;;;;;;;;12.90;99.90;;;;;;7329214;19;110461;-70
2023/06/02 06:31:32;;;;;;;;;;;13.00;99.90;;;;;;7328674;19;110127;-69
2023/06/02 06:33:59;;;;;;;;;;;13.10;99.90;;;;;;7326500;19;111956;-70
2023/06/02 06:36:26;;;;;;;;;;;13.10;99.90;;;;;;7328963;19;112134;-70
2023/06/02 06:38:53;;;;;;;;;;;13.10;99.90;;;;;;7325974;19;109728;-72
2023/06/02 06:41:22;;;;;;;;;;;13.10;99.90;;;;;;7328003;19;111119;-70
2023/06/02 06:43:49;;;;;;;;;;;13.10;99.90;;;;;;7330934;19;109746;-76
2023/06/02 06:46:16;;;;;;;;;;;13.10;99.90;;;;;;7332135;19;109738;-72
2023/06/02 06:48:43;;;;;;;;;;;13.20;99.90;;;;;;7332228;19;113649;-72
2023/06/02 06:51:11;;;;;;;;;;;13.30;99.90;;;;;;7328931;19;109788;-69
2023/06/02 06:53:38;;;;;;;;;;;13.30;99.90;;;;;;7327400;19;110088;-66
2023/06/02 06:56:05;;;;;;;;;;;13.40;99.90;;;;;;7328026;19;109619;-72
2023/06/02 06:58:33;;;;;;;;;;;13.40;99.90;;;;;;7331982;19;109805;-73
2023/06/02 07:01:00;;;;;;;;;;;13.40;99.90;;;;;;7331789;19;110783;-73
2023/06/02 07:03:27;;;;;;;;;;;13.50;99.90;;;;;;7325600;19;111346;-74
2023/06/02 07:05:54;;;;;;;;;;;13.60;99.90;;;;;;7328955;19;109468;-74
2023/06/02 07:08:21;;;;;;;;;;;13.70;99.90;;;;;;7324338;19;110806;-74
2023/06/02 07:10:48;;;;;;;;;;;13.80;99.90;;;;;;7337178;19;109843;-73
2023/06/02 07:13:15;;;;;;;;;;;13.80;99.90;;;;;;7328630;19;110245;-72
2023/06/02 07:15:42;;;;;;;;;;;13.80;99.90;;;;;;7336207;19;111513;-70
2023/06/02 07:18:12;;;;;;;;;;;14.00;99.90;;;;;;7335653;19;110875;-69
2023/06/02 07:20:39;;;;;;;;;;;14.10;99.90;;;;;;7337537;19;110408;-69
2023/06/02 07:23:07;;;;;;;;;;;14.10;99.90;;;;;;7337347;19;109332;-68
2023/06/02 07:25:35;;;;;;;;;;;14.10;99.90;;;;;;7337675;19;109722;-69
2023/06/02 07:28:02;;;;;;;;;;;14.10;99.90;;;;;;7336114;19;110672;-69
2023/06/02 07:30:31;;;;;;;;;;;14.10;99.90;;;;;;7337349;19;109258;-73
2023/06/02 07:32:58;;;;;;;;;;;14.10;99.90;;;;;;7341400;19;113705;-70
2023/06/02 07:35:26;;;;;;;;;;;14.00;99.90;;;;;;7334446;19;109878;-70
2023/06/02 07:37:53;;;;;;;;;;;14.10;99.90;;;;;;7336919;19;109853;-74
2023/06/02 07:40:20;;;;;;;;;;;14.20;99.90;;;;;;7336394;19;113211;-69
2023/06/02 07:42:47;;;;;;;;;;;14.20;99.90;;;;;;7335542;19;110646;-67
2023/06/02 07:45:15;;;;;;;;;;;14.10;99.90;;;;;;7335365;19;109571;-67
2023/06/02 07:47:42;;;;;;;;;;;14.30;99.90;;;;;;7333816;19;110185;-65
2023/06/02 07:50:09;;;;;;;;;;;14.40;99.90;;;;;;7336010;19;109859;-67
2023/06/02 07:52:37;;;;;;;;;;;14.50;99.90;;;;;;7339613;19;110026;-68
2023/06/02 07:55:05;;;;;;;;;;;14.40;99.90;;;;;;7333531;19;110628;-67
2023/06/02 07:57:32;;;;;;;;;;;14.30;99.90;;;;;;7336938;19;109694;-67
2023/06/02 08:00:08;;;;;;;;;;;14.20;99.90;;;;;;7335677;19;110894;-68
2023/06/02 08:02:35;;;;;;;;;;;14.20;99.90;;;;;;7335244;19;110264;-68
2023/06/02 08:05:02;;;;;;;;;;;14.10;99.90;;;;;;7332973;19;112075;-67
2023/06/02 08:07:29;;;;;;;;;;;14.00;99.90;;;;;;7331845;19;112251;-68
2023/06/02 08:09:56;;;;;;;;;;;13.90;99.90;;;;;;7332618;19;110631;-68
2023/06/02 08:12:24;;;;;;;;;;;14.00;99.90;;;;;;7333968;19;110584;-70
2023/06/02 08:14:51;;;;;;;;;;;14.00;99.90;;;;;;7340147;19;110479;-66
2023/06/02 08:17:18;;;;;;;;;;;14.20;99.90;;;;;;7336383;19;110678;-74
2023/06/02 08:19:45;;;;;;;;;;;14.40;99.90;;;;;;7333452;19;111915;-73
2023/06/02 08:22:12;;;;;;;;;;;14.60;99.90;;;;;;7334583;19;110343;-74
2023/06/02 08:24:39;;;;;;;;;;;14.60;99.90;;;;;;7333550;19;109736;-72
2023/06/02 08:27:07;;;;;;;;;;;14.60;99.90;;;;;;7328342;19;110570;-67
2023/06/02 08:29:34;;;;;;;;;;;14.80;99.90;;;;;;7333843;19;111057;-67
2023/06/02 08:32:01;;;;;;;;;;;14.90;99.90;;;;;;7333109;19;110580;-66
2023/06/02 08:34:28;;;;;;;;;;;14.90;99.90;;;;;;7332380;19;114020;-68
2023/06/02 08:36:57;;;;;;;;;;;14.90;99.90;;;;;;7336712;19;111484;-68
2023/06/02 08:39:25;;;;;;;;;;;15.00;99.90;;;;;;7332531;19;111305;-71
2023/06/02 08:41:55;;;;;;;;;;;15.00;99.90;;;;;;7334280;19;109402;-67
2023/06/02 08:44:23;;;;;;;;;;;15.10;99.90;;;;;;7333625;19;110007;-68
2023/06/02 08:46:50;;;;;;;;;;;15.10;99.90;;;;;;7334787;19;109829;-69
2023/06/02 08:49:18;;;;;;;;;;;15.10;99.90;;;;;;7328473;19;112693;-68
2023/06/02 08:51:47;;;;;;;;;;;15.10;99.90;;;;;;7332016;19;110664;-71
2023/06/02 08:54:14;;;;;;;;;;;15.20;99.90;;;;;;7332634;19;111183;-67
2023/06/02 08:56:44;;;;;;;;;;;15.10;99.90;;;;;;7336900;19;109781;-68
2023/06/02 08:59:11;;;;;;;;;;;14.90;99.90;;;;;;7337758;19;109974;-77
2023/06/02 09:01:41;;;;;;;;;;;14.90;99.90;;;;;;7336329;19;109890;-73
2023/06/02 09:04:08;;;;;;;;;;;15.20;99.90;;;;;;7334545;19;110114;-72
2023/06/02 09:06:36;;;;;;;;;;;15.40;99.90;;;;;;7331767;19;111390;-74
2023/06/02 09:09:04;;;;;;;;;;;15.60;99.90;;;;;;7332484;19;109820;-74
2023/06/02 09:11:31;;;;;;;;;;;15.70;99.90;;;;;;7332161;19;110173;-77
2023/06/02 09:13:59;;;;;;;;;;;15.90;99.90;;;;;;7333826;19;111560;-78
2023/06/02 09:16:37;;;;;;;;;;;16.00;99.70;;;;;;7330867;19;109515;-80
2023/06/02 09:19:04;;;;;;;;;;;16.10;99.90;;;;;;7335569;19;110413;-77
2023/06/02 09:21:37;;;;;;;;;;;16.30;99.90;;;;;;7339269;19;110091;-75
2023/06/02 09:24:05;;;;;;;;;;;16.30;99.90;;;;;;7334665;19;110781;-77
2023/06/02 09:26:36;;;;;;;;;;;16.50;99.90;;;;;;7329099;19;111649;-89
2023/06/02 09:29:06;;;;;;;;;;;16.60;99.60;;;;;;7335620;19;111785;-87
2023/06/02 09:31:44;;;;;;;;;;;16.70;99.10;;;;;;7338648;19;110043;-86
2023/06/02 09:34:12;;;;;;;;;;;16.80;99.90;;;;;;7335168;19;111514;-86
2023/06/02 09:36:39;;;;;;;;;;;16.80;97.80;;;;;;7336602;19;111991;-87
2023/06/02 09:39:08;;;;;;;;;;;16.50;99.80;;;;;;7331323;19;110132;-87
2023/06/02 09:41:35;;;;;;;;;;;16.80;99.90;;;;;;7336814;19;111015;-87
2023/06/02 09:44:10;;;;;;;;;;;17.00;99.60;;;;;;7340592;19;110269;-91
2023/06/02 09:57:42;;;;;;;;;;;17.60;99.40;;;;;;7326389;19;110315;-71
2023/06/02 10:00:11;;;;;;;;;;;17.80;99.00;;;;;;7328817;19;110120;-76
2023/06/02 10:02:38;;;;;;;;;;;17.60;97.10;;;;;;7332159;19;110165;-69
2023/06/02 10:05:06;;;;;;;;;;;17.30;96.90;;;;;;7334639;19;110810;-74
2023/06/02 10:07:39;;;;;;;;;;;17.40;98.30;;;;;;7331491;19;110226;-72
2023/06/02 10:10:06;;;;;;;;;;;17.70;98.90;;;;;;7329009;19;111085;-73
2023/06/02 10:12:52;;;;;;;;;;;18.00;97.80;;;;;;7330975;19;109606;-75
2023/06/02 10:15:31;;;;;;;;;;;18.20;96.70;;;;;;7329789;19;111365;-68
2023/06/02 10:17:58;;;;;;;;;;;18.30;97.20;;;;;;7329779;19;111100;-74
2023/06/02 10:20:26;;;;;;;;;;;18.20;96.20;;;;;;7329542;19;111027;-70
2023/06/02 10:23:03;;;;;;;;;;;18.10;96.50;;;;;;7331926;19;110192;-69
2023/06/02 10:25:39;;;;;;;;;;;18.20;98.30;;;;;;7329815;19;110182;-69
2023/06/02 10:28:08;;;;;;;;;;;18.30;96.30;;;;;;7333085;19;109856;-73
2023/06/02 10:30:35;;;;;;;;;;;18.10;96.00;;;;;;7324593;19;109868;-75
2023/06/02 10:33:02;;;;;;;;;;;18.00;95.90;;;;;;7330246;19;110601;-73
2023/06/02 10:35:49;;;;;;;;;;;17.80;95.60;;;;;;7328064;19;110928;-75
2023/06/02 10:38:23;;;;;;;;;;;17.90;97.80;;;;;;7330085;19;110549;-73
2023/06/02 10:40:52;;;;;;;;;;;18.20;97.40;;;;;;7331975;19;109848;-71
2023/06/02 10:43:19;;;;;;;;;;;18.30;95.50;;;;;;7327764;19;109915;-72
2023/06/02 10:45:46;;;;;;;;;;;18.00;95.70;;;;;;7330721;19;110201;-72
2023/06/02 10:48:31;;;;;;;;;;;18.00;95.80;;;;;;7328553;19;111286;-72
2023/06/02 10:50:59;;;;;;;;;;;18.10;96.10;;;;;;7340733;19;110932;-71
2023/06/02 10:53:26;;;;;;;;;;;18.20;97.10;;;;;;7337053;19;109536;-71
2023/06/02 10:55:53;;;;;;;;;;;18.40;97.20;;;;;;7336744;19;112674;-72
2023/06/02 10:58:21;;;;;;;;;;;18.60;97.30;;;;;;7335143;19;111994;-72
2023/06/02 11:00:52;;;;;;;;;;;18.80;97.10;;;;;;7337783;19;111756;-71
2023/06/02 11:03:22;;;;;;;;;;;18.80;96.10;;;;;;7335521;19;111155;-71
2023/06/02 11:05:50;;;;;;;;;;;18.70;95.90;;;;;;7336873;19;109832;-71
2023/06/02 11:08:18;;;;;;;;;;;18.50;95.00;;;;;;7335885;19;110503;-71
2023/06/02 11:10:49;;;;;;;;;;;18.50;94.70;;;;;;7338925;19;111016;-72
2023/06/02 11:13:18;;;;;;;;;;;18.60;95.80;;;;;;7339628;19;109998;-72
2023/06/02 11:15:53;;;;;;;;;;;18.80;95.80;;;;;;7337598;19;111147;-71
2023/06/02 11:18:31;;;;;;;;;;;18.60;93.90;;;;;;7335272;19;111307;-70
2023/06/02 11:21:00;;;;;;;;;;;18.50;94.60;;;;;;7334813;19;112013;-71
2023/06/02 11:23:27;;;;;;;;;;;18.60;96.00;;;;;;7339812;19;110716;-70
2023/06/02 11:26:00;;;;;;;;;;;18.80;96.20;;;;;;7337178;19;109526;-70
2023/06/02 11:28:28;;;;;;;;;;;19.00;94.20;;;;;;7337234;19;109779;-70
2023/06/02 11:31:08;;;;;;;;;;;18.90;93.70;;;;;;7336667;19;111714;-71
2023/06/02 11:33:37;;;;;;;;;;;18.80;94.30;;;;;;7333223;19;110157;-71
2023/06/02 11:36:05;;;;;;;;;;;18.90;93.80;;;;;;7342439;19;109369;-71
2023/06/02 11:38:32;;;;;;;;;;;19.00;94.80;;;;;;7335796;19;111723;-71
2023/06/02 11:41:12;;;;;;;;;;;19.10;94.50;;;;;;7336642;19;109659;-71
2023/06/02 11:43:46;;;;;;;;;;;19.30;94.90;;;;;;7334188;19;114112;-71
2023/06/02 11:46:17;;;;;;;;;;;19.50;94.30;;;;;;7337383;19;109516;-71
2023/06/02 11:48:45;;;;;;;;;;;19.60;94.20;;;;;;7336289;19;109870;-72
2023/06/02 11:51:13;;;;;;;;;;;19.70;93.70;;;;;;7334428;19;110645;-72
2023/06/02 11:53:45;;;;;;;;;;;19.60;93.70;;;;;;7336817;19;109835;-71
2023/06/02 11:56:16;;;;;;;;;;;19.70;93.90;;;;;;7330268;19;110973;-71
2023/06/02 11:58:44;;;;;;;;;;;19.90;93.80;;;;;;7335881;19;111112;-71
2023/06/02 12:01:15;;;;;;;;;;;20.10;93.40;;;;;;7333053;19;109624;-67
2023/06/02 12:04:01;;;;;;;;;;;20.10;93.10;;;;;;7330507;19;110775;-75
2023/06/02 12:06:32;;;;;;;;;;;20.30;93.60;;;;;;7334728;19;110620;-75
2023/06/02 12:09:12;;;;;;;;;;;20.30;94.20;;;;;;7336523;19;112973;-75
2023/06/02 12:11:40;;;;;;;;;;;20.50;94.30;;;;;;7334168;19;110710;-74
2023/06/02 12:14:07;;;;;;;;;;;20.70;93.40;;;;;;7334078;19;109943;-75
2023/06/02 12:16:37;;;;;;;;;;;20.60;93.60;;;;;;7332787;19;109431;-75
2023/06/02 12:19:15;;;;;;;;;;;20.60;92.30;;;;;;7341576;19;110511;-75
2023/06/02 12:21:45;;;;;;;;;;;20.60;93.40;;;;;;7333381;19;111154;-76
2023/06/02 12:24:28;;;;;;;;;;;20.80;92.40;;;;;;7332723;19;110473;-74
2023/06/02 12:26:56;;;;;;;;;;;20.80;91.80;;;;;;7336637;19;109830;-75
2023/06/02 12:29:23;;;;;;;;;;;20.60;91.80;;;;;;7334444;19;111192;-77
2023/06/02 12:32:01;;;;;;;;;;;20.60;92.80;;;;;;7332823;19;112006;-76
2023/06/02 12:34:28;;;;;;;;;;;20.90;92.30;;;;;;7335058;19;109993;-79
2023/06/02 12:36:55;;;;;;;;;;;20.80;91.20;;;;;;7334906;19;109379;-79
2023/06/02 12:39:23;;;;;;;;;;;20.70;92.10;;;;;;7334853;19;111581;-78
2023/06/02 12:41:51;;;;;;;;;;;20.80;92.10;;;;;;7339605;19;111817;-79
2023/06/02 12:44:18;;;;;;;;;;;20.60;91.80;;;;;;7333120;19;109561;-77
2023/06/02 12:46:46;;;;;;;;;;;20.70;91.70;;;;;;7335729;19;109527;-74
2023/06/02 12:49:16;;;;;;;;;;;20.90;92.50;;;;;;7332969;19;111055;-74
2023/06/02 12:51:43;;;;;;;;;;;21.20;91.70;;;;;;7335102;19;111126;-71
2023/06/02 12:54:10;;;;;;;;;;;21.10;91.10;;;;;;7334390;19;109776;-67
2023/06/02 12:56:37;;;;;;;;;;;21.00;91.70;;;;;;7336319;19;111881;-73
2023/06/02 12:59:10;;;;;;;;;;;21.30;92.90;;;;;;7329866;19;113126;-75
2023/06/02 13:01:38;;;;;;;;;;;21.40;92.00;;;;;;7330322;19;112164;-69
2023/06/02 13:04:05;;;;;;;;;;;21.80;92.70;;;;;;7339133;19;111967;-73
2023/06/02 13:06:34;;;;;;;;;;;21.90;91.60;;;;;;7330395;19;110578;-68
2023/06/02 13:09:02;;;;;;;;;;;22.00;91.80;;;;;;7334985;19;110942;-69
2023/06/02 13:11:29;;;;;;;;;;;22.00;92.10;;;;;;7331945;19;111303;-67
2023/06/02 13:13:58;;;;;;;;;;;22.20;91.50;;;;;;7332401;19;109699;-66
2023/06/02 13:16:25;;;;;;;;;;;22.20;92.20;;;;;;7329772;19;111294;-66
2023/06/02 13:18:53;;;;;;;;;;;22.20;91.00;;;;;;7334387;19;111008;-65
2023/06/02 13:21:20;;;;;;;;;;;22.10;90.50;;;;;;7327439;19;111378;-64
2023/06/02 13:23:51;;;;;;;;;;;22.10;91.10;;;;;;7334098;19;109545;-66
2023/06/02 13:26:18;;;;;;;;;;;22.30;92.00;;;;;;7336996;19;110164;-66
2023/06/02 13:28:45;;;;;;;;;;;22.30;90.60;;;;;;7330249;19;110064;-67
2023/06/02 13:31:12;;;;;;;;;;;22.50;91.40;;;;;;7332176;19;111743;-65
2023/06/02 13:33:39;;;;;;;;;;;22.70;91.70;;;;;;7331189;19;109619;-66
2023/06/02 13:36:06;;;;;;;;;;;22.80;90.60;;;;;;7329598;19;112930;-68
2023/06/02 13:38:33;;;;;;;;;;;23.00;91.70;;;;;;7330278;19;110281;-66
2023/06/02 13:41:00;;;;;;;;;;;23.20;91.60;;;;;;7331528;19;109230;-66
2023/06/02 13:43:28;;;;;;;;;;;23.20;90.30;;;;;;7334479;19;110323;-67
2023/06/02 13:45:55;;;;;;;;;;;23.20;91.50;;;;;;7334118;19;110958;-67
2023/06/02 13:48:22;;;;;;;;;;;22.90;88.90;;;;;;7338762;19;110006;-67
2023/06/02 13:50:49;;;;;;;;;;;22.80;90.50;;;;;;7332617;19;110750;-67
2023/06/02 13:53:16;;;;;;;;;;;22.80;90.20;;;;;;7333528;19;111041;-68
2023/06/02 13:55:44;;;;;;;;;;;22.90;90.10;;;;;;7332280;19;111482;-68
2023/06/02 13:58:11;;;;;;;;;;;22.90;90.30;;;;;;7331409;19;110389;-67
2023/06/02 14:00:40;;;;;;;;;;;22.90;89.50;;;;;;7329737;19;109407;-67
2023/06/02 14:03:07;;;;;;;;;;;22.90;90.50;;;;;;7330204;19;109660;-67
2023/06/02 14:05:35;;;;;;;;;;;23.10;90.10;;;;;;7329938;19;110614;-68
2023/06/02 14:08:02;;;;;;;;;;;23.20;90.30;;;;;;7329357;19;111940;-67
2023/06/02 14:10:29;;;;;;;;;;;23.30;90.90;;;;;;7337026;19;110031;-67
2023/06/02 14:12:56;;;;;;;;;;;23.20;88.90;;;;;;7331084;19;109433;-68
2023/06/02 14:15:23;;;;;;;;;;;22.90;90.00;;;;;;7330224;19;112477;-67
2023/06/02 14:17:51;;;;;;;;;;;22.80;90.60;;;;;;7325815;19;112961;-68
2023/06/02 14:20:18;;;;;;;;;;;23.10;90.60;;;;;;7329121;19;109525;-68
2023/06/02 14:22:45;;;;;;;;;;;23.40;91.00;;;;;;7332039;19;110094;-68
2023/06/02 14:25:13;;;;;;;;;;;23.40;90.70;;;;;;7335510;19;110166;-68